Time;durP1;ratioP1;P1;durP2;ratioP2;P2;SDS_P1;SDS_P2;PMS_P1;PMS_P2;Temp;Humidity;BMP_temperature;BMP_pressure;BME280_temperature;BME280_humidity;BME280_pressure;Samples;Min_cycle;Max_cycle;Signal;HPM_P1;HPM_P2
2021/04/29 01:28:27;;;;;;;26.62;12.10;;;;;;;9.81;56.99;98261.78;3479805;101;28617;-82
2021/04/29 01:34:37;;;;;;;30.68;16.77;;;;;;;9.39;58.93;98253.63;4316644;79;291641;-81
2021/04/29 01:40:40;;;;;;;28.60;13.13;;;;;;;9.64;57.89;98255.91;4298872;81;28596;-79
2021/04/29 01:46:43;;;;;;;26.37;11.60;;;;;;;9.46;58.68;98256.94;4332781;80;28586;-81
2021/04/29 01:52:46;;;;;;;24.23;12.30;;;;;;;9.63;57.44;98256.94;4313332;81;28651;-82
2021/04/29 01:58:48;;;;;;;26.70;13.40;;;;;;;9.53;56.98;98256.78;4339834;81;28593;-81
2021/04/29 02:04:50;;;;;;;25.32;12.63;;;;;;;9.31;58.75;98251.62;4299155;81;28561;-83
2021/04/29 02:10:53;;;;;;;29.67;12.03;;;;;;;9.14;58.46;98259.64;4309476;81;28572;-83
2021/04/29 02:17:00;;;;;;;23.80;11.55;;;;;;;8.90;60.95;98252.22;4343712;81;28579;-83
2021/04/29 02:23:14;;;;;;;25.32;11.63;;;;;;;8.89;60.56;98249.26;4325202;81;28576;-83
2021/04/29 02:29:19;;;;;;;23.52;12.33;;;;;;;8.76;62.25;98244.98;4349753;81;28573;-83
2021/04/29 02:35:21;;;;;;;25.52;11.57;;;;;;;8.74;62.74;98243.88;4342829;81;28636;-82
2021/04/29 02:41:24;;;;;;;23.40;11.40;;;;;;;8.64;63.47;98236.47;4304254;81;28556;-82
2021/04/29 02:47:27;;;;;;;25.52;10.48;;;;;;;8.63;62.94;98238.03;4325712;82;28597;-81
2021/04/29 02:53:30;;;;;;;23.10;10.82;;;;;;;8.64;62.92;98245.84;4315969;82;28581;-82
2021/04/29 02:59:40;;;;;;;23.10;11.57;;;;;;;8.68;62.75;98237.32;4318503;82;28669;-81
2021/04/29 03:05:43;;;;;;;24.72;11.63;;;;;;;9.03;62.62;98251.92;4171202;84;28654;-81
2021/04/29 03:11:45;;;;;;;25.60;11.88;;;;;;;9.17;62.90;98253.78;4179631;84;28573;-81
2021/04/29 03:17:47;;;;;;;27.93;12.30;;;;;;;9.38;60.77;98258.70;4160172;84;28616;-82
2021/04/29 03:23:51;;;;;;;26.12;11.73;;;;;;;9.86;59.62;98260.54;4185969;84;28620;-81
2021/04/29 03:29:54;;;;;;;23.00;11.18;;;;;;;9.33;63.13;98264.25;4177066;84;28718;-82
2021/04/29 03:35:56;;;;;;;26.40;12.47;;;;;;;9.55;63.06;98266.77;4262418;83;28654;-81
2021/04/29 03:41:58;;;;;;;26.40;11.93;;;;;;;9.37;67.51;98264.59;4222891;83;28577;-83
2021/04/29 03:48:02;;;;;;;21.62;10.35;;;;;;;9.75;65.26;98250.16;4259714;83;28627;-83
2021/04/29 03:54:05;;;;;;;21.30;10.60;;;;;;;10.17;62.06;98252.92;4245145;83;28646;-83
2021/04/29 04:00:09;;;;;;;27.95;12.43;;;;;;;10.08;63.29;98251.17;4276021;83;28578;-83
2021/04/29 04:06:12;;;;;;;28.12;12.35;;;;;;;10.48;62.23;98249.32;4229105;83;28556;-82
2021/04/29 04:12:14;;;;;;;28.83;12.58;;;;;;;10.82;59.82;98242.45;4243011;83;28623;-83
2021/04/29 04:18:17;;;;;;;23.65;12.10;;;;;;;11.16;58.93;98248.17;4224397;83;28659;-83
2021/04/29 04:24:19;;;;;;;26.68;13.25;;;;;;;11.77;54.79;98248.94;4248664;83;28602;-82
2021/04/29 04:30:22;;;;;;;25.57;12.63;;;;;;;11.44;60.03;98247.60;4230117;82;28577;-83
2021/04/29 04:36:24;;;;;;;28.35;12.50;;;;;;;11.48;58.90;98250.59;4203650;84;28604;-85
2021/04/29 04:42:26;;;;;;;26.75;12.05;;;;;;;11.57;59.88;98253.92;4196785;84;28581;-83
2021/04/29 04:48:28;;;;;;;28.77;12.70;;;;;;;11.72;57.54;98238.94;4185268;84;28677;-83
2021/04/29 04:54:31;;;;;;;26.15;11.78;;;;;;;11.93;56.68;98243.95;4196721;84;28641;-83
2021/04/29 05:00:37;;;;;;;25.72;12.65;;;;;;;12.45;53.93;98244.78;4179085;84;28668;-84
2021/04/29 05:06:39;;;;;;;28.07;13.43;;;;;;;12.51;52.90;98232.41;4196379;84;28638;-83
2021/04/29 05:12:41;;;;;;;31.10;13.48;;;;;;;12.73;52.40;98230.60;4217045;84;28642;-83
2021/04/29 05:18:43;;;;;;;32.38;13.90;;;;;;;13.10;52.24;98226.37;4185260;84;28593;-84
2021/04/29 05:24:45;;;;;;;31.75;15.45;;;;;;;13.37;50.67;98224.50;4186928;84;28655;-84
2021/04/29 05:30:47;;;;;;;31.23;14.35;;;;;;;13.78;49.41;98225.04;4207987;84;28597;-82
2021/04/29 05:36:50;;;;;;;36.80;15.03;;;;;;;14.33;47.78;98217.63;4182312;84;28561;-83
2021/04/29 05:42:52;;;;;;;37.55;17.40;;;;;;;14.64;46.03;98226.41;4202935;84;28696;-84
2021/04/29 05:48:54;;;;;;;37.88;17.00;;;;;;;15.09;45.04;98222.14;4186149;84;28672;-83
2021/04/29 05:54:56;;;;;;;35.95;17.50;;;;;;;15.56;43.81;98228.81;4167119;84;28684;-83
2021/04/29 06:00:58;;;;;;;37.15;17.23;;;;;;;15.76;42.25;98220.24;4185299;84;28660;-83
2021/04/29 06:07:00;;;;;;;43.70;18.65;;;;;;;16.15;41.86;98214.48;4186018;84;28638;-82
2021/04/29 06:13:04;;;;;;;38.58;16.77;;;;;;;16.41;41.04;98202.78;4203942;83;28590;-82
2021/04/29 06:19:08;;;;;;;35.50;16.62;;;;;;;16.61;40.84;98189.23;4195000;84;28635;-82
2021/04/29 06:25:10;;;;;;;33.53;15.58;;;;;;;16.69;40.26;98192.66;4187043;83;28573;-82
2021/04/29 06:31:12;;;;;;;34.30;16.85;;;;;;;17.28;39.41;98181.48;4226426;82;28580;-83
2021/04/29 06:37:15;;;;;;;36.68;18.12;;;;;;;17.64;38.63;98182.25;4255356;82;28649;-81
2021/04/29 06:43:18;;;;;;;42.65;20.48;;;;;;;17.88;39.19;98185.36;4262623;82;28617;-83
2021/04/29 06:49:22;;;;;;;47.88;21.07;;;;;;;18.28;38.15;98178.66;4277320;82;28559;-81
2021/04/29 06:55:24;;;;;;;43.00;19.23;;;;;;;18.16;38.83;98177.79;4272303;82;28597;-83
2021/04/29 07:01:26;;;;;;;39.18;17.10;;;;;;;18.47;38.37;98171.72;4261278;82;28618;-85
2021/04/29 07:07:28;;;;;;;38.70;14.63;;;;;;;18.93;38.23;98172.62;4289790;82;28664;-82
2021/04/29 07:13:31;;;;;;;29.92;12.95;;;;;;;18.91;36.97;98175.67;4280871;82;28603;-84
2021/04/29 07:19:33;;;;;;;32.03;14.25;;;;;;;19.58;36.10;98184.19;4278566;82;28672;-83
2021/04/29 07:25:36;;;;;;;36.63;13.72;;;;;;;19.85;36.12;98178.28;4263312;82;28623;-83
2021/04/29 07:31:39;;;;;;;29.65;13.35;;;;;;;20.14;35.90;98178.36;4244740;82;28687;-83
2021/04/29 07:37:43;;;;;;;28.07;13.58;;;;;;;20.20;35.40;98163.46;4276199;83;28626;-86
2021/04/29 07:43:45;;;;;;;32.95;13.72;;;;;;;20.24;35.60;98167.70;4238412;83;28678;-85
2021/04/29 07:49:47;;;;;;;37.35;14.23;;;;;;;20.29;35.60;98162.66;4264840;83;28598;-85
2021/04/29 07:55:49;;;;;;;34.03;13.53;;;;;;;20.54;35.34;98162.47;4231638;83;28573;-83
2021/04/29 08:01:52;;;;;;;34.98;13.65;;;;;;;20.55;34.86;98159.98;4248948;83;28677;-83
2021/04/29 08:07:54;;;;;;;37.55;13.30;;;;;;;20.71;35.83;98151.33;4230999;82;28608;-82
2021/04/29 08:13:56;;;;;;;34.05;14.63;;;;;;;21.23;35.11;98144.27;4258275;83;28619;-82
2021/04/29 08:19:58;;;;;;;35.43;12.37;;;;;;;21.49;34.85;98136.02;4263529;83;28631;-84
2021/04/29 08:26:02;;;;;;;15.80;7.30;;;;;;;22.07;33.70;98136.22;4242112;83;28609;-84
2021/04/29 08:32:05;;;;;;;13.32;7.42;;;;;;;22.33;31.57;98124.30;4209474;83;28675;-84
2021/04/29 08:38:08;;;;;;;13.72;6.22;;;;;;;22.81;30.14;98121.66;4266133;81;28638;-84
2021/04/29 08:44:10;;;;;;;8.30;4.12;;;;;;;22.84;30.08;98110.59;4248319;81;28566;-84
2021/04/29 08:50:12;;;;;;;5.90;3.20;;;;;;;23.19;27.60;98102.62;4257730;81;28633;-85
2021/04/29 08:56:20;;;;;;;7.67;3.25;;;;;;;23.42;27.17;98103.61;4255668;81;28635;-84
2021/04/29 09:02:37;;;;;;;6.12;3.20;;;;;;;23.46;28.10;98106.70;4331430;80;28611;-85
2021/04/29 09:08:41;;;;;;;5.92;3.37;;;;;;;23.46;28.33;98097.11;4347684;80;28611;-84
2021/04/29 09:14:43;;;;;;;6.95;3.83;;;;;;;23.79;29.16;98089.36;4343763;80;28646;-85
2021/04/29 09:21:01;;;;;;;4.97;3.20;;;;;;;23.81;31.54;98084.32;4320256;80;28615;-86
2021/04/29 09:27:23;;;;;;;5.62;3.10;;;;;;;23.80;31.83;98075.08;4182894;84;28597;-86
2021/04/29 09:33:38;;;;;;;5.25;3.00;;;;;;;23.92;33.31;98059.16;4179755;84;28599;-85
2021/04/29 09:39:40;;;;;;;7.78;3.72;;;;;;;23.94;33.69;98048.63;4182702;84;28683;-85
2021/04/29 09:45:42;;;;;;;5.00;3.33;;;;;;;23.86;33.36;98053.10;4227838;82;28680;-86
2021/04/29 09:51:44;;;;;;;8.23;3.70;;;;;;;24.26;33.90;98036.47;4216045;82;28588;-85
2021/04/29 09:57:48;;;;;;;5.78;3.10;;;;;;;24.85;32.95;98034.23;4267426;81;28543;-86
2021/04/29 10:03:50;;;;;;;6.25;3.05;;;;;;;24.98;33.40;98010.80;4266739;81;28597;-86
2021/04/29 10:09:54;;;;;;;5.22;2.87;;;;;;;25.70;32.86;98018.09;4266555;81;28641;-85
2021/04/29 10:15:57;;;;;;;3.35;2.30;;;;;;;26.35;32.35;98006.95;4221343;82;28603;-87
2021/04/29 10:22:06;;;;;;;4.20;2.50;;;;;;;26.35;32.37;98008.33;4266778;81;28641;-87
2021/04/29 10:28:10;;;;;;;4.22;2.15;;;;;;;26.51;32.40;97997.22;4208941;83;28617;-87
2021/04/29 10:34:16;;;;;;;6.12;2.37;;;;;;;26.59;32.58;98004.45;4197787;83;28660;-88
2021/04/29 10:40:37;;;;;;;4.95;1.90;;;;;;;26.57;32.53;98006.20;4199696;84;28618;-85
2021/04/29 10:46:42;;;;;;;4.75;2.02;;;;;;;26.80;32.09;97997.18;4193692;84;28630;-87
2021/04/29 10:52:57;;;;;;;3.98;1.65;;;;;;;26.89;31.83;97992.83;4185668;84;28626;-86
2021/04/29 10:59:10;;;;;;;6.20;1.95;;;;;;;27.26;31.72;97991.48;4199003;83;28577;-87
2021/04/29 11:05:23;;;;;;;4.42;2.35;;;;;;;27.41;31.40;98002.17;4184562;84;28688;-89
2021/04/29 11:11:36;;;;;;;8.20;2.37;;;;;;;27.04;31.53;98005.51;4201919;83;28609;-86
2021/04/29 11:17:39;;;;;;;5.80;2.40;;;;;;;27.14;31.61;98007.66;4200594;84;28638;-90
2021/04/29 11:23:48;;;;;;;3.50;2.20;;;;;;;27.60;30.58;98014.33;4195289;84;28638;-87
2021/04/29 11:30:02;;;;;;;5.72;2.33;;;;;;;27.39;30.98;98006.70;4174941;84;28605;-84
2021/04/29 11:36:20;;;;;;;4.87;2.30;;;;;;;27.04;31.26;98011.81;4181691;84;28585;-81
2021/04/29 11:42:27;;;;;;;4.58;2.40;;;;;;;26.27;32.03;98023.88;4196776;84;28608;-84
2021/04/29 11:48:32;;;;;;;;;;;;;;;26.30;32.05;98035.58;4221209;83;28605;-84
2021/04/29 11:54:33;;;;;;;6.00;3.37;;;;;;;26.18;32.75;98042.76;4180952;84;20267;-84
2021/04/29 12:00:42;;;;;;;8.20;3.30;;;;;;;26.38;32.75;98042.03;4198712;84;28622;-84
2021/04/29 12:06:55;;;;;;;7.50;4.28;;;;;;;26.71;32.48;98037.96;4168171;84;28627;-84
2021/04/29 12:12:57;;;;;;;8.53;3.55;;;;;;;26.94;32.37;98037.23;4188923;84;28592;-85
2021/04/29 12:19:03;;;;;;;5.00;3.20;;;;;;;27.20;31.74;98039.88;4200853;84;28663;-84
2021/04/29 12:25:07;;;;;;;5.60;3.55;;;;;;;26.24;32.79;98040.58;4191703;84;28670;-85
2021/04/29 12:31:20;;;;;;;5.15;3.47;;;;;;;25.56;32.81;98035.66;4268519;81;28632;-85
2021/04/29 12:37:23;;;;;;;6.00;3.55;;;;;;;25.95;33.16;98042.66;4256906;82;28649;-87
2021/04/29 12:43:25;;;;;;;10.43;3.90;;;;;;;25.56;33.20;98045.28;4334408;80;28569;-84
2021/04/29 12:49:28;;;;;;;7.78;3.62;;;;;;;25.65;32.99;98036.27;4329495;81;28656;-84
2021/04/29 12:55:32;;;;;;;6.70;3.87;;;;;;;25.65;32.85;98023.07;4339082;81;28663;-83
2021/04/29 13:01:34;;;;;;;7.17;4.45;;;;;;;24.84;34.04;98023.02;4330526;80;28583;-84
2021/04/29 13:07:37;;;;;;;7.17;4.17;;;;;;;25.07;34.25;98029.30;4336073;81;28569;-83
2021/04/29 13:13:40;;;;;;;7.12;3.80;;;;;;;25.67;32.74;98023.51;4349134;80;28579;-84
2021/04/29 13:19:45;;;;;;;8.38;5.20;;;;;;;24.55;33.53;98024.94;4197638;84;28675;-84
2021/04/29 13:25:48;;;;;;;6.85;4.22;;;;;;;24.68;33.87;98014.70;4200246;84;28577;-85
2021/04/29 13:31:51;;;;;;;7.65;4.25;;;;;;;25.23;33.37;98013.41;4189864;84;28658;-84
2021/04/29 13:37:53;;;;;;;7.92;4.28;;;;;;;25.18;33.42;98019.37;4185753;84;28577;-84
2021/04/29 13:43:55;;;;;;;7.42;4.70;;;;;;;25.10;33.62;98018.99;4164492;84;28591;-84
2021/04/29 13:49:57;;;;;;;8.43;5.15;;;;;;;25.39;33.04;98005.16;4202968;82;28635;-85
2021/04/29 13:56:00;;;;;;;7.50;4.75;;;;;;;25.56;32.86;97988.28;4196199;84;28584;-85
2021/04/29 14:02:03;;;;;;;8.58;5.15;;;;;;;25.30;32.92;97994.31;4243212;83;28575;-83
2021/04/29 14:08:06;;;;;;;12.00;5.83;;;;;;;24.88;32.96;97986.79;4265685;83;28581;-84
2021/04/29 14:14:08;;;;;;;9.13;5.08;;;;;;;24.74;33.17;97994.08;4249567;83;28679;-86
2021/04/29 14:20:12;;;;;;;8.28;5.10;;;;;;;24.74;32.97;97992.70;4242101;83;28581;-86
2021/04/29 14:26:16;;;;;;;7.67;4.97;;;;;;;25.17;32.42;97992.25;4264019;83;28589;-85
2021/04/29 14:32:18;;;;;;;8.38;4.90;;;;;;;24.98;32.51;97992.92;4258737;83;28600;-85
2021/04/29 14:38:20;;;;;;;8.93;4.92;;;;;;;25.20;32.66;97992.34;4272467;82;28582;-84
2021/04/29 14:44:23;;;;;;;8.38;5.25;;;;;;;24.89;32.66;98009.59;4262767;82;28655;-85
2021/04/29 14:50:26;;;;;;;9.58;5.85;;;;;;;25.04;32.76;98009.39;4282014;82;28612;-84
2021/04/29 14:56:28;;;;;;;8.43;5.12;;;;;;;25.06;32.89;98014.77;4264804;82;28586;-85
2021/04/29 15:02:31;;;;;;;12.00;5.65;;;;;;;24.92;33.21;98006.95;4265535;82;28672;-85
2021/04/29 15:08:33;;;;;;;11.28;5.62;;;;;;;25.68;32.77;98003.90;4259586;82;28632;-86
2021/04/29 15:14:36;;;;;;;8.95;5.85;;;;;;;25.80;33.03;97998.87;4225400;82;28656;-86
2021/04/29 15:20:38;;;;;;;9.78;6.30;;;;;;;26.07;32.66;97996.28;4191555;83;28654;-85
2021/04/29 15:26:40;;;;;;;12.88;6.85;;;;;;;26.36;32.34;97992.01;4202109;82;28613;-85
2021/04/29 15:32:43;;;;;;;9.35;5.75;;;;;;;25.98;32.47;97986.87;4233249;84;28795;-86
2021/04/29 15:38:46;;;;;;;10.18;6.37;;;;;;;26.36;31.83;97990.03;4177064;82;28577;-85
2021/04/29 15:44:48;;;;;;;9.73;6.33;;;;;;;26.66;31.94;97984.48;4180183;83;28591;-85
2021/04/29 15:50:54;;;;;;;11.10;6.47;;;;;;;26.44;32.42;97982.70;4178210;84;28572;-86
2021/04/29 15:56:56;;;;;;;8.20;6.00;;;;;;;26.09;32.60;97994.56;4191982;84;28567;-85
2021/04/29 16:02:59;;;;;;;10.03;6.12;;;;;;;26.51;32.17;97984.83;4195238;84;28705;-86
2021/04/29 16:09:04;;;;;;;11.40;6.15;;;;;;;26.30;32.37;97996.41;4183876;84;28593;-85
2021/04/29 16:15:08;;;;;;;12.85;5.95;;;;;;;26.04;32.61;97997.02;4190007;84;28639;-86
2021/04/29 16:21:11;;;;;;;8.43;5.15;;;;;;;26.12;32.83;97999.34;4175203;84;28558;-86
2021/04/29 16:27:15;;;;;;;8.45;5.83;;;;;;;26.18;32.57;97993.77;4179846;84;28608;-86
2021/04/29 16:33:17;;;;;;;7.12;4.40;;;;;;;25.25;33.78;98002.25;4188848;83;28617;-83
2021/04/29 16:39:20;;;;;;;9.13;5.47;;;;;;;24.68;33.98;98002.34;4184898;84;28627;-85
2021/04/29 16:45:23;;;;;;;9.90;5.47;;;;;;;24.83;34.04;98004.12;4179181;84;28644;-84
2021/04/29 16:51:25;;;;;;;11.75;5.92;;;;;;;24.73;34.49;98007.59;4178565;84;28948;-84
2021/04/29 16:57:27;;;;;;;10.63;6.25;;;;;;;24.63;34.70;98014.97;4192752;83;28594;-83
2021/04/29 17:03:29;;;;;;;8.75;5.15;;;;;;;24.95;34.42;98004.07;4175306;84;28593;-82
2021/04/29 17:09:32;;;;;;;8.40;5.05;;;;;;;24.28;35.34;98005.93;4176025;83;28637;-86
2021/04/29 17:15:34;;;;;;;7.47;4.28;;;;;;;24.49;34.57;98018.12;4197510;84;28581;-88
2021/04/29 17:21:38;;;;;;;7.75;4.67;;;;;;;24.28;35.02;98021.03;4174178;84;28576;-88
2021/04/29 17:27:40;;;;;;;10.90;5.03;;;;;;;24.09;35.09;98030.12;4202208;84;28599;-89
2021/04/29 17:33:42;;;;;;;11.88;5.35;;;;;;;24.33;35.34;98028.45;4197140;82;28665;-89
2021/04/29 17:39:44;;;;;;;9.28;4.80;;;;;;;24.07;36.70;98030.23;4272109;82;28552;-89
2021/04/29 17:45:47;;;;;;;7.28;5.05;;;;;;;23.75;36.79;98031.39;4257302;82;28670;-89
2021/04/29 17:51:51;;;;;;;10.53;4.87;;;;;;;23.40;37.90;98031.27;4266334;82;28596;-88
2021/04/29 17:57:53;;;;;;;14.85;6.70;;;;;;;23.18;38.60;98029.73;4250640;82;28581;-88
2021/04/29 18:03:57;;;;;;;9.73;5.17;;;;;;;22.94;38.11;98027.97;4283527;82;28626;-88
2021/04/29 18:10:00;;;;;;;11.57;4.53;;;;;;;22.88;38.14;98030.67;4262592;82;28750;-88
2021/04/29 18:16:02;;;;;;;10.95;5.40;;;;;;;22.76;38.58;98036.13;4262151;82;28676;-88
2021/04/29 18:22:05;;;;;;;11.73;5.42;;;;;;;22.16;39.89;98048.02;4246219;82;28607;-88
2021/04/29 18:28:07;;;;;;;12.00;5.35;;;;;;;21.84;40.41;98053.83;4256749;82;28623;-87
2021/04/29 18:34:09;;;;;;;10.10;5.45;;;;;;;21.64;41.50;98062.20;4256487;82;28646;-86
2021/04/29 18:40:12;;;;;;;11.55;5.05;;;;;;;21.35;42.33;98074.69;4248572;82;28586;-87
2021/04/29 18:46:15;;;;;;;14.85;6.10;;;;;;;21.16;43.09;98082.70;4284036;82;28580;-85
2021/04/29 18:52:17;;;;;;;14.33;7.53;;;;;;;20.66;46.45;98085.94;4273215;82;28587;-88
2021/04/29 18:58:19;;;;;;;17.73;8.28;;;;;;;20.74;46.03;98095.52;4283892;82;28650;-89
2021/04/29 19:04:22;;;;;;;18.25;9.30;;;;;;;20.65;46.20;98098.80;4266303;82;28584;-90
2021/04/29 19:10:24;;;;;;;15.55;7.85;;;;;;;20.39;47.57;98102.89;4266058;82;28587;-88
2021/04/29 19:16:26;;;;;;;16.90;9.20;;;;;;;20.32;48.08;98106.88;4259307;82;28580;-88
2021/04/29 19:22:28;;;;;;;19.17;9.95;;;;;;;20.32;48.03;98109.61;4282228;82;28628;-89
2021/04/29 19:28:31;;;;;;;18.67;10.50;;;;;;;20.21;47.67;98113.77;4264076;82;28601;-88
2021/04/29 19:34:33;;;;;;;21.27;10.90;;;;;;;20.72;47.20;98118.25;4254948;82;28696;-88
2021/04/29 19:40:35;;;;;;;19.52;10.50;;;;;;;20.62;47.29;98116.63;4276787;82;28653;-87
2021/04/29 19:46:38;;;;;;;19.45;10.85;;;;;;;20.28;49.22;98110.02;4279394;82;28680;-88
2021/04/29 19:52:41;;;;;;;16.48;9.38;;;;;;;20.51;48.90;98108.51;4261825;82;28582;-87
2021/04/29 19:58:44;;;;;;;19.30;9.78;;;;;;;20.43;48.49;98105.20;4227568;82;28657;-88
2021/04/29 20:04:46;;;;;;;18.82;10.48;;;;;;;20.36;48.33;98095.31;4326911;80;28567;-87
2021/04/29 20:10:48;;;;;;;19.50;11.03;;;;;;;20.60;48.34;98097.58;4330334;80;28587;-89
2021/04/29 20:16:51;;;;;;;18.52;10.30;;;;;;;20.36;49.92;98085.76;4337069;80;28616;-83
2021/04/29 20:22:53;;;;;;;23.42;11.03;;;;;;;20.39;49.68;98090.02;4361876;81;28603;-83
2021/04/29 20:28:55;;;;;;;20.10;10.70;;;;;;;20.34;49.76;98090.20;4196995;84;28605;-85
2021/04/29 20:34:57;;;;;;;18.95;10.82;;;;;;;20.27;49.86;98098.86;4174406;84;28583;-85
2021/04/29 20:40:59;;;;;;;20.70;11.10;;;;;;;20.11;51.07;98103.97;4182667;84;28655;-85
2021/04/29 20:47:04;;;;;;;17.98;10.03;;;;;;;20.54;49.11;98102.41;4195403;84;28660;-85
2021/04/29 20:53:06;;;;;;;18.87;10.35;;;;;;;20.34;48.28;98105.20;4188938;84;28608;-85
2021/04/29 20:59:09;;;;;;;19.77;11.15;;;;;;;20.23;49.07;98118.34;4219772;83;28664;-83
2021/04/29 21:05:11;;;;;;;21.00;11.12;;;;;;;20.18;48.23;98113.83;4177911;84;28684;-83
2021/04/29 21:11:14;;;;;;;19.35;10.95;;;;;;;20.03;49.17;98110.20;4201791;82;28971;-82
2021/04/29 21:17:16;;;;;;;19.55;11.60;;;;;;;19.82;50.18;98112.65;4246226;83;28639;-82
2021/04/29 21:23:18;;;;;;;21.93;10.80;;;;;;;19.88;49.42;98117.64;4239354;82;28627;-82
2021/04/29 21:29:20;;;;;;;18.05;9.93;;;;;;;19.57;51.98;98114.97;4246765;83;28603;-81
2021/04/29 21:35:24;;;;;;;17.15;10.13;;;;;;;19.18;55.09;98118.11;4227212;83;28688;-81
2021/04/29 21:41:27;;;;;;;18.80;10.15;;;;;;;19.38;53.00;98121.44;4268421;82;28573;-81
2021/04/29 21:47:29;;;;;;;21.80;10.23;;;;;;;19.34;52.94;98125.34;4261821;82;28600;-82
2021/04/29 21:53:32;;;;;;;16.82;10.63;;;;;;;19.05;53.13;98127.17;4274548;82;28680;-81
2021/04/29 21:59:34;;;;;;;18.35;9.68;;;;;;;18.08;62.54;98125.73;4259116;82;28652;-83
2021/04/29 22:05:37;;;;;;;21.15;10.05;;;;;;;18.36;60.42;98124.31;4256237;82;28600;-82
2021/04/29 22:11:39;;;;;;;21.97;12.63;;;;;;;18.79;55.71;98120.92;4274409;82;28604;-82
2021/04/29 22:17:41;;;;;;;19.52;11.05;;;;;;;18.73;55.46;98124.89;4258897;82;28604;-82
2021/04/29 22:23:44;;;;;;;19.48;10.75;;;;;;;18.75;54.64;98115.31;4269277;82;28579;-82
2021/04/29 22:29:46;;;;;;;21.30;10.88;;;;;;;18.68;55.09;98112.99;4260070;82;28580;-80
2021/04/29 22:35:48;;;;;;;23.27;12.03;;;;;;;18.56;55.57;98117.39;4262547;82;28616;-82
2021/04/29 22:41:51;;;;;;;22.50;12.45;;;;;;;18.41;56.71;98104.35;4283083;82;28644;-82
2021/04/29 22:47:55;;;;;;;21.35;11.85;;;;;;;18.27;57.51;98108.45;4282137;82;28570;-82
2021/04/29 22:53:57;;;;;;;18.57;11.18;;;;;;;18.47;55.37;98107.77;4283905;82;28687;-80
2021/04/29 22:59:59;;;;;;;21.57;12.23;;;;;;;18.37;57.62;98116.40;4267042;82;28627;-80
2021/04/29 23:06:01;;;;;;;21.68;12.37;;;;;;;18.50;56.41;98107.17;4265468;82;28587;-80
2021/04/29 23:12:04;;;;;;;23.73;11.85;;;;;;;18.62;55.39;98102.53;4255627;82;28668;-81
2021/04/29 23:18:07;;;;;;;22.90;12.25;;;;;;;18.63;55.42;98109.58;4243210;82;28677;-81
2021/04/29 23:24:10;;;;;;;20.97;12.07;;;;;;;18.35;57.39;98098.22;4245649;82;28604;-81
2021/04/29 23:30:13;;;;;;;23.42;11.70;;;;;;;18.00;61.56;98098.39;4268314;82;28661;-81
2021/04/29 23:36:15;;;;;;;21.05;12.55;;;;;;;17.70;62.37;98098.16;4267237;82;28644;-82
2021/04/29 23:42:17;;;;;;;22.37;10.95;;;;;;;17.54;63.32;98109.06;4192590;82;28553;-81
2021/04/29 23:48:22;;;;;;;19.67;11.18;;;;;;;18.05;60.86;98111.36;4178317;84;28677;-81
2021/04/29 23:54:24;;;;;;;21.07;12.47;;;;;;;17.89;61.76;98113.55;4199992;84;28710;-82
